logo
Rechercher aéroport 
image banner adimage banner adimage banner ad
image banner ad

FABL - Bram Fischer International

Situé à Bloemfontein, South Africa

ICAO - FABL, IATA - BFN

Données fournies par Airmate  

Information générale

Coordonnées: S29°5'38" E26°18'14"
Élévation : 4457 feet MSL.
Variation magnétique : -22° East
Voir autres Aéroports à Free State

Données opérationnelles

Special qualification required
Heure actuelle UTC:
Heure actuelle locale:
Météo
METAR: FABL 290904Z VRB02KT CAVOK 19/02 Q1027 NOSIG
TAF: TAF FABL 290400Z 2906/3006 VRB03KT CAVOK TX22/2912Z TN01/3004Z
Voir NOTAMs / SUP AIP / TFR affectant cet aéroport [VIEW]
Fréquences de communication: [VIEW]

Pistes:

Identifiant RWYQFULongueur (ft)Largeur (ft)SurfaceLDA (ft)
028396139ASPH8409
20180°8396139ASPH8409
12102°7150147ASPH7198
30282°7150147ASPH7198

Coordonnées de l'aéroport

Adresse: Bloemfontein South Africa

Vue satellite de FABL